createdAt,value
2019-05-12T00:00:35.336Z,100691.88
2019-05-12T00:03:08.251Z,100689.71
2019-05-12T00:05:38.318Z,100694.30
2019-05-12T00:08:08.465Z,100688.48
2019-05-12T00:10:38.713Z,100698.04
2019-05-12T00:13:09.493Z,100695.31
2019-05-12T00:15:39.498Z,100697.22
2019-05-12T00:18:09.426Z,100699.84
2019-05-12T00:20:41.683Z,100707.73
2019-05-12T00:23:24.057Z,100707.34
2019-05-12T00:25:43.450Z,100715.44
2019-05-12T00:28:13.704Z,100720.78
2019-05-12T00:30:48.741Z,100718.31
2019-05-12T00:33:19.397Z,100727.45
2019-05-12T00:35:51.988Z,100731.73
2019-05-12T00:38:22.292Z,100732.41
2019-05-12T00:40:52.164Z,100738.52
2019-05-12T00:43:22.538Z,100740.02
2019-05-12T00:45:52.269Z,100750.38
2019-05-12T00:48:22.421Z,100742.98
2019-05-12T00:50:52.023Z,100749.48
2019-05-12T00:53:34.827Z,100754.72
2019-05-12T00:55:53.562Z,100768.63
2019-05-12T00:58:23.140Z,100769.28
2019-05-12T01:00:52.512Z,100772.92
2019-05-12T01:03:22.079Z,100777.27
2019-05-12T01:05:52.395Z,100778.75
2019-05-12T01:08:22.005Z,100773.77
2019-05-12T01:10:51.545Z,100780.68
2019-05-12T01:13:21.551Z,100781.26
2019-05-12T01:15:51.593Z,100784.73
2019-05-12T01:18:21.469Z,100788.94
2019-05-12T01:20:51.559Z,100788.94
2019-05-12T01:23:23.536Z,100795.58
2019-05-12T01:25:53.405Z,100796.55
2019-05-12T01:28:25.186Z,100802.40
2019-05-12T01:31:00.055Z,100796.73
2019-05-12T01:33:30.506Z,100796.16
2019-05-12T01:36:00.290Z,100803.00
2019-05-12T01:38:30.261Z,100807.13
2019-05-12T01:40:59.888Z,100804.41
2019-05-12T01:43:29.439Z,100807.03
2019-05-12T01:45:59.970Z,100808.35
2019-05-12T01:48:29.812Z,100815.60
2019-05-12T01:51:05.635Z,100819.98
2019-05-12T01:53:48.161Z,100824.94
2019-05-12T01:56:19.588Z,100821.39
2019-05-12T01:58:49.532Z,100832.82
2019-05-12T02:01:20.308Z,100831.50
2019-05-12T02:03:50.790Z,100831.72
2019-05-12T02:06:21.349Z,100835.30
2019-05-12T02:08:58.080Z,100843.83
2019-05-12T02:11:33.841Z,100844.97
2019-05-12T02:14:15.584Z,100846.55
2019-05-12T02:16:47.959Z,100851.08
2019-05-12T02:19:17.950Z,100855.58
2019-05-12T02:21:48.876Z,100857.16
2019-05-12T02:24:26.601Z,100860.23
2019-05-12T02:26:50.079Z,100860.47
2019-05-12T02:29:19.730Z,100864.59
2019-05-12T02:31:50.146Z,100870.45
2019-05-12T02:34:19.874Z,100868.70
2019-05-12T02:36:49.301Z,100867.30
2019-05-12T02:39:24.727Z,100868.98
2019-05-12T02:41:55.239Z,100871.47
2019-05-12T02:44:25.018Z,100879.32
2019-05-12T02:46:55.195Z,100881.95
2019-05-12T02:49:25.056Z,100887.54
2019-05-12T02:51:57.710Z,100889.22
2019-05-12T02:54:49.579Z,100891.48
2019-05-12T02:56:59.727Z,100892.80
2019-05-12T02:59:34.636Z,100904.86
2019-05-12T03:02:06.153Z,100906.17
2019-05-12T03:04:38.604Z,100900.52
2019-05-12T03:07:15.304Z,100907.72
2019-05-12T03:09:45.084Z,100907.22
2019-05-12T03:12:15.129Z,100913.47
2019-05-12T03:14:44.945Z,100907.67
2019-05-12T03:17:18.151Z,100904.50
2019-05-12T03:19:48.021Z,100909.77
2019-05-12T03:22:25.301Z,100913.66
2019-05-12T03:25:07.819Z,100918.55
2019-05-12T03:27:30.844Z,100915.18
2019-05-12T03:30:00.747Z,100919.98
2019-05-12T03:32:30.234Z,100921.03
2019-05-12T03:35:08.099Z,100923.84
2019-05-12T03:37:35.375Z,100926.55
2019-05-12T03:40:06.085Z,100933.41
2019-05-12T03:42:35.723Z,100931.52
2019-05-12T03:45:08.613Z,100943.28
2019-05-12T03:47:37.909Z,100948.17
2019-05-12T03:50:07.910Z,100956.05
2019-05-12T03:52:37.370Z,100954.73
2019-05-12T03:55:30.890Z,100956.44
2019-05-12T03:57:45.043Z,100964.71
2019-05-12T04:00:16.120Z,100970.67
2019-05-12T04:02:45.810Z,100975.31
2019-05-12T04:05:15.871Z,100980.41
2019-05-12T04:07:45.670Z,100993.55
2019-05-12T04:10:16.044Z,101003.22
2019-05-12T04:12:46.121Z,101005.07
2019-05-12T04:15:15.899Z,101010.41
2019-05-12T04:17:46.369Z,101011.14
2019-05-12T04:20:16.312Z,101009.84
2019-05-12T04:22:45.956Z,101016.56
2019-05-12T04:25:15.661Z,101019.89
2019-05-12T04:27:47.361Z,101028.70
2019-05-12T04:30:17.576Z,101030.88
2019-05-12T04:32:47.377Z,101036.83
2019-05-12T04:35:17.645Z,101045.16
2019-05-12T04:37:47.592Z,101055.05
2019-05-12T04:40:20.744Z,101057.36
2019-05-12T04:42:50.263Z,101067.04
2019-05-12T04:45:21.474Z,101075.21
2019-05-12T04:47:55.304Z,101078.98
2019-05-12T04:50:34.892Z,101083.50
2019-05-12T04:53:08.277Z,101095.61
2019-05-12T04:55:45.718Z,101092.28
2019-05-12T04:58:18.469Z,101098.61
2019-05-12T05:00:47.954Z,101107.19
2019-05-12T05:03:18.775Z,101111.73
2019-05-12T05:05:54.747Z,101114.94
2019-05-12T05:15:47.201Z,101131.23
2019-05-12T05:18:20.305Z,101131.06
2019-05-12T05:20:50.048Z,101135.38
2019-05-12T05:23:21.574Z,101135.87
2019-05-12T05:25:53.949Z,101150.78
2019-05-12T05:28:25.473Z,101160.44
2019-05-12T05:30:56.906Z,101167.62
2019-05-12T05:33:28.750Z,101174.97
2019-05-12T05:36:03.461Z,101172.97
2019-05-12T05:38:36.245Z,101179.63
2019-05-12T05:41:10.385Z,101179.27
2019-05-12T05:43:43.913Z,101185.29
2019-05-12T05:46:14.793Z,101188.30
2019-05-12T05:48:47.366Z,101191.70
2019-05-12T05:51:18.918Z,101196.72
2019-05-12T05:53:51.944Z,101203.09
2019-05-12T05:56:38.895Z,101219.64
2019-05-12T05:58:58.000Z,101223.97
2019-05-12T06:01:27.739Z,101233.92
2019-05-12T06:03:58.367Z,101229.36
2019-05-12T06:06:34.184Z,101237.71
2019-05-12T06:09:10.039Z,101247.95
2019-05-12T06:11:43.615Z,101249.80
2019-05-12T06:14:16.359Z,101258.16
2019-05-12T06:16:46.331Z,101252.19
2019-05-12T06:19:23.485Z,101249.48
2019-05-12T06:21:57.726Z,101264.28
2019-05-12T06:24:28.175Z,101267.70
2019-05-12T06:27:14.654Z,101268.23
2019-05-12T06:29:35.014Z,101276.53
2019-05-12T06:32:10.845Z,101273.20
2019-05-12T06:34:38.081Z,101270.14
2019-05-12T06:37:16.954Z,101278.63
2019-05-12T06:39:44.451Z,101281.25
2019-05-12T06:42:17.058Z,101278.81
2019-05-12T06:44:48.989Z,101286.03
2019-05-12T06:47:19.821Z,101280.64
2019-05-12T06:49:56.443Z,101290.08
2019-05-12T06:52:25.042Z,101284.03
2019-05-12T06:54:56.836Z,101291.94
2019-05-12T06:57:28.877Z,101275.71
2019-05-12T06:59:57.773Z,101277.48
2019-05-12T07:02:30.431Z,101297.22
2019-05-12T07:04:59.585Z,101290.06
2019-05-12T07:07:35.864Z,101299.85
2019-05-12T07:10:10.443Z,101296.26
2019-05-12T07:12:36.529Z,101305.47
2019-05-12T07:15:09.782Z,101309.25
2019-05-12T07:17:55.800Z,101307.56
2019-05-12T07:24:35.045Z,101304.75
2019-05-12T07:27:09.172Z,101299.84
2019-05-12T07:29:38.541Z,101319.72
2019-05-12T07:32:16.576Z,101323.03
2019-05-12T07:34:43.747Z,101328.66
2019-05-12T07:37:15.258Z,101332.57
2019-05-12T07:39:49.462Z,101327.78
2019-05-12T07:42:25.022Z,101332.55
2019-05-12T07:44:54.726Z,101330.41
2019-05-12T07:47:29.212Z,101334.63
2019-05-12T07:49:57.256Z,101333.16
2019-05-12T07:52:27.059Z,101329.53
2019-05-12T07:54:56.737Z,101317.38
2019-05-12T07:57:27.643Z,101337.12
2019-05-12T07:59:57.988Z,101332.52
2019-05-12T08:02:32.029Z,101337.72
2019-05-12T08:05:00.305Z,101335.41
2019-05-12T08:07:30.247Z,101335.33
2019-05-12T08:09:59.797Z,101341.84
2019-05-12T08:12:29.565Z,101336.88
2019-05-12T08:15:05.422Z,101338.92
2019-05-12T08:17:33.677Z,101357.27
2019-05-12T08:20:06.638Z,101347.95
2019-05-12T08:22:40.857Z,101347.58
2019-05-12T08:25:13.215Z,101345.66
2019-05-12T08:27:45.282Z,101349.85
2019-05-12T08:30:14.024Z,101355.44
2019-05-12T08:32:44.567Z,101362.17
2019-05-12T08:35:25.419Z,101382.05
2019-05-12T08:37:46.017Z,101375.97
2019-05-12T08:40:17.304Z,101381.30
2019-05-12T08:42:47.443Z,101386.67
2019-05-12T08:45:25.100Z,101381.47
2019-05-12T08:47:49.412Z,101384.00
2019-05-12T08:50:23.178Z,101387.88
2019-05-12T08:52:50.979Z,101398.98
2019-05-12T08:55:25.194Z,101403.44
2019-05-12T08:57:54.065Z,101406.91
2019-05-12T09:00:46.533Z,101403.16
2019-05-12T09:03:14.122Z,101403.67
2019-05-12T09:05:44.510Z,101393.60
2019-05-12T09:08:14.712Z,101395.84
2019-05-12T09:10:45.153Z,101396.38
2019-05-12T09:13:14.798Z,101400.48
2019-05-12T09:15:44.265Z,101387.59
2019-05-12T09:18:14.555Z,101409.19
2019-05-12T09:20:51.351Z,101408.27
2019-05-12T09:23:19.969Z,101410.85
2019-05-12T09:25:53.055Z,101412.57
2019-05-12T09:28:27.054Z,101411.08
2019-05-12T09:30:58.578Z,101405.78
2019-05-12T09:33:32.490Z,101403.53
2019-05-12T09:36:04.326Z,101407.98
2019-05-12T09:38:40.916Z,101410.17
2019-05-12T09:41:15.748Z,101414.25
2019-05-12T09:43:50.427Z,101408.12
2019-05-12T09:46:19.554Z,101392.47
2019-05-12T09:48:52.271Z,101402.52
2019-05-12T09:51:23.341Z,101410.08
2019-05-12T09:53:55.513Z,101411.68
2019-05-12T09:56:24.744Z,101412.67
2019-05-12T09:59:01.549Z,101408.71
2019-05-12T10:01:29.154Z,101411.12
2019-05-12T10:04:03.647Z,101403.11
2019-05-12T10:06:34.038Z,101416.81
2019-05-12T10:09:08.821Z,101412.56
2019-05-12T10:11:40.365Z,101417.47
2019-05-12T10:14:11.102Z,101423.87
2019-05-12T10:16:45.585Z,101421.80
2019-05-12T10:19:14.454Z,101422.99
2019-05-12T10:21:49.097Z,101436.98
2019-05-12T10:24:17.669Z,101413.71
2019-05-12T10:26:50.541Z,101435.50
2019-05-12T10:29:20.726Z,101428.20
2019-05-12T10:31:49.715Z,101423.02
2019-05-12T10:34:24.214Z,101408.12
2019-05-12T10:36:55.290Z,101434.50
2019-05-12T10:39:25.057Z,101433.07
2019-05-12T10:41:58.178Z,101445.41
2019-05-12T10:44:36.188Z,101434.52
2019-05-12T10:58:25.003Z,101425.09
2019-05-12T11:00:58.978Z,101432.36
2019-05-12T11:03:27.068Z,101444.34
2019-05-12T11:06:02.753Z,101445.07
2019-05-12T11:08:33.171Z,101432.53
2019-05-12T11:11:04.065Z,101443.86
2019-05-12T11:13:35.149Z,101446.69
2019-05-12T11:16:06.654Z,101440.45
2019-05-12T11:18:38.215Z,101440.45
2019-05-12T11:21:08.724Z,101451.91
2019-05-12T11:23:43.572Z,101442.88
2019-05-12T11:26:16.783Z,101443.48
2019-05-12T11:28:48.194Z,101434.61
2019-05-12T11:31:19.706Z,101445.07
2019-05-12T11:33:50.496Z,101449.54
2019-05-12T15:12:57.521Z,101533.06
2019-05-12T15:14:32.607Z,101541.23
2019-05-12T15:16:57.177Z,101537.33
2019-05-12T15:19:30.710Z,101533.98
2019-05-12T15:22:07.848Z,101546.14
2019-05-12T15:24:33.653Z,101544.20
2019-05-12T15:27:06.784Z,101542.61
2019-05-12T15:29:36.447Z,101545.61
2019-05-12T15:32:06.285Z,101550.39
2019-05-12T15:34:35.978Z,101550.89
2019-05-12T15:37:05.732Z,101543.24
2019-05-12T15:39:36.537Z,101558.81
2019-05-12T15:45:38.342Z,101573.48
2019-05-12T15:48:10.882Z,101561.74
2019-05-12T15:50:45.661Z,101554.23
2019-05-12T15:53:22.097Z,101557.58
2019-05-12T15:55:45.126Z,101571.50
2019-05-12T15:58:15.217Z,101571.97
2019-05-12T16:00:49.923Z,101566.78
2019-05-12T16:03:19.975Z,101562.78
2019-05-12T16:05:50.461Z,101571.89
2019-05-12T16:08:27.918Z,101563.77
2019-05-12T16:10:58.614Z,101574.95
2019-05-12T16:13:30.682Z,101570.24
2019-05-12T16:16:04.218Z,101585.50
2019-05-12T16:18:31.424Z,101586.36
2019-05-12T16:21:07.308Z,101581.16
2019-05-12T16:23:37.692Z,101582.70
2019-05-12T16:26:12.500Z,101577.13
2019-05-12T16:28:40.613Z,101570.56
2019-05-12T16:31:10.442Z,101575.38
2019-05-12T16:33:40.869Z,101582.34
2019-05-12T16:36:16.892Z,101586.22
2019-05-12T16:38:50.228Z,101578.98
2019-05-12T16:41:26.414Z,101572.03
2019-05-12T16:43:54.887Z,101589.14
2019-05-12T16:46:26.301Z,101590.47
2019-05-12T16:48:57.603Z,101590.19
2019-05-12T16:51:33.131Z,101590.18
2019-05-12T16:54:03.799Z,101588.59
2019-05-12T16:56:35.886Z,101594.58
2019-05-12T16:59:15.660Z,101596.98
2019-05-12T17:01:38.922Z,101603.08
2019-05-12T17:04:09.002Z,101608.52
2019-05-12T17:06:39.325Z,101608.77
2019-05-12T17:09:09.530Z,101612.30
2019-05-12T17:11:47.331Z,101611.91
2019-05-12T17:14:12.404Z,101607.14
2019-05-12T17:16:46.580Z,101607.78
2019-05-12T17:19:15.535Z,101609.23
2019-05-12T17:21:49.581Z,101610.20
2019-05-12T17:24:18.959Z,101607.57
2019-05-12T17:26:50.556Z,101621.38
2019-05-12T17:29:24.299Z,101622.77
2019-05-12T17:31:57.959Z,101623.66
2019-05-12T17:34:35.271Z,101622.82
2019-05-12T17:37:05.308Z,101626.47
2019-05-12T17:39:39.146Z,101627.55
2019-05-12T17:42:07.145Z,101630.95
2019-05-12T17:44:39.075Z,101633.11
2019-05-12T17:47:14.883Z,101642.59
2019-05-12T17:49:43.722Z,101636.64
2019-05-12T17:52:18.464Z,101644.80
2019-05-12T17:54:45.495Z,101643.31
2019-05-12T17:57:19.731Z,101641.80
2019-05-12T17:59:48.039Z,101649.88
2019-05-12T18:02:18.343Z,101652.11
2019-05-12T18:04:49.883Z,101649.72
2019-05-12T18:07:23.691Z,101658.58
2019-05-12T18:09:56.823Z,101661.47
2019-05-12T18:12:36.648Z,101663.97
2019-05-12T18:15:14.672Z,101668.41
2019-05-12T18:17:49.639Z,101668.13
2019-05-12T18:20:16.828Z,101674.59
2019-05-12T18:22:48.444Z,101677.83
2019-05-12T18:25:22.003Z,101674.53
2019-05-12T18:27:54.190Z,101681.13
2019-05-12T18:30:24.158Z,101691.98
2019-05-12T18:33:04.079Z,101689.62
2019-05-12T18:35:25.585Z,101685.21
2019-05-12T18:37:55.679Z,101697.80
2019-05-12T18:40:28.155Z,101700.61
2019-05-12T18:43:00.143Z,101706.59
2019-05-12T18:45:29.954Z,101719.53
2019-05-12T18:48:01.207Z,101723.64
2019-05-12T18:50:34.262Z,101723.16
2019-05-12T18:53:07.881Z,101726.05
2019-05-12T18:55:41.305Z,101729.02
2019-05-12T18:58:14.888Z,101743.33
2019-05-12T19:00:44.340Z,101740.32
2019-05-12T19:03:15.142Z,101746.30
2019-05-12T19:05:45.574Z,101752.66
2019-05-12T19:08:15.211Z,101761.27
2019-05-12T19:10:48.750Z,101763.45
2019-05-12T19:13:16.731Z,101772.51
2019-05-12T19:15:46.665Z,101772.97
2019-05-12T19:18:18.437Z,101775.34
2019-05-12T19:20:50.329Z,101786.44
2019-05-12T19:23:27.830Z,101787.46
2019-05-12T19:25:54.249Z,101795.87
2019-05-12T19:28:24.115Z,101797.92
2019-05-12T19:31:00.786Z,101798.29
2019-05-12T19:33:26.790Z,101802.78
2019-05-12T19:36:04.528Z,101811.56
2019-05-12T19:38:34.551Z,101813.67
2019-05-12T19:41:06.079Z,101820.56
2019-05-12T19:43:39.337Z,101825.05
2019-05-12T19:46:13.629Z,101820.80
2019-05-12T19:48:49.653Z,101818.98
2019-05-12T19:51:24.635Z,101818.57
2019-05-12T19:53:51.824Z,101828.73
2019-05-12T19:56:34.608Z,101828.86
2019-05-12T19:58:56.532Z,101832.73
2019-05-12T20:01:32.871Z,101835.47
2019-05-12T20:04:03.576Z,101832.91
2019-05-12T20:06:33.749Z,101833.31
2019-05-12T20:09:10.764Z,101838.38
2019-05-12T20:11:39.210Z,101844.95
2019-05-12T20:14:19.065Z,101835.84
2019-05-12T20:16:44.916Z,101840.15
2019-05-12T20:19:19.812Z,101849.41
2019-05-12T20:21:48.916Z,101858.83
2019-05-12T20:24:20.725Z,101859.74
2019-05-12T20:26:53.951Z,101862.31
2019-05-12T20:29:33.001Z,101865.91
2019-05-12T20:31:55.449Z,101865.43
2019-05-12T20:34:26.375Z,101873.95
2019-05-12T20:36:59.157Z,101872.88
2019-05-12T20:39:27.848Z,101873.04
2019-05-12T20:42:00.652Z,101879.11
2019-05-12T20:44:30.150Z,101880.35
2019-05-12T20:47:06.443Z,101879.56
2019-05-12T20:49:36.349Z,101882.50
2019-05-12T20:52:09.493Z,101880.35
2019-05-12T20:54:38.581Z,101884.06
2019-05-12T20:57:08.748Z,101885.14
2019-05-12T20:59:39.975Z,101888.02
2019-05-12T21:02:11.258Z,101895.77
2019-05-12T21:04:41.325Z,101896.31
2019-05-12T21:07:21.217Z,101892.00
2019-05-12T21:09:44.993Z,101896.83
2019-05-12T21:12:16.069Z,101898.05
2019-05-12T21:14:52.072Z,101895.65
2019-05-12T21:17:38.966Z,101908.06
2019-05-12T21:19:59.235Z,101897.58
2019-05-12T21:22:34.225Z,101905.05
2019-05-12T21:25:10.662Z,101906.41
2019-05-12T21:27:39.812Z,101912.47
2019-05-12T21:30:14.937Z,101914.33
2019-05-12T21:32:56.455Z,101913.34
2019-05-12T21:35:26.049Z,101915.60
2019-05-12T21:38:03.944Z,101925.59
2019-05-12T21:40:35.227Z,101915.70
2019-05-12T21:43:07.570Z,101908.84
2019-05-12T21:45:40.433Z,101910.55
2019-05-12T21:48:15.245Z,101913.59
2019-05-12T21:50:44.521Z,101918.39
2019-05-12T21:53:20.603Z,101926.19
2019-05-12T21:55:55.175Z,101929.66
2019-05-12T21:58:25.127Z,101931.13
2019-05-12T22:01:04.485Z,101936.03
2019-05-12T22:03:33.512Z,101939.20
2019-05-12T22:06:14.835Z,101945.12
2019-05-12T22:08:35.431Z,101945.65
2019-05-12T22:11:11.202Z,101943.54
2019-05-12T22:13:37.138Z,101943.69
2019-05-12T22:16:09.038Z,101947.39
2019-05-12T22:18:39.615Z,101951.77
2019-05-12T22:21:09.272Z,101955.01
2019-05-12T22:23:44.498Z,101954.75
2019-05-12T22:26:11.579Z,101960.97
2019-05-12T22:28:46.715Z,101964.81
2019-05-12T22:31:17.078Z,101967.91
2019-05-12T22:33:52.043Z,101965.02
2019-05-12T22:36:25.732Z,101961.09
2019-05-12T22:38:54.331Z,101971.38
2019-05-12T22:41:24.304Z,101968.81
2019-05-12T22:43:55.099Z,101972.13
2019-05-12T22:46:31.759Z,101975.36
2019-05-12T22:48:56.585Z,101973.20
2019-05-12T22:51:29.664Z,101977.20
2019-05-12T22:54:08.740Z,101977.64
2019-05-12T22:56:34.292Z,101980.01
2019-05-12T22:59:04.764Z,101975.55
2019-05-12T23:07:43.931Z,102003.21
2019-05-12T23:10:14.347Z,101998.63
2019-05-12T23:12:45.331Z,102003.16
2019-05-12T23:15:15.854Z,102012.34
2019-05-12T23:17:49.407Z,102012.19
2019-05-12T23:20:18.589Z,102007.98
2019-05-12T23:22:49.370Z,102010.47
2019-05-12T23:25:21.475Z,102018.72
2019-05-12T23:27:50.573Z,102019.02
2019-05-12T23:30:24.024Z,102026.66
2019-05-12T23:32:53.103Z,102024.08
2019-05-12T23:35:28.261Z,102026.91
2019-05-12T23:37:54.417Z,102033.44
2019-05-12T23:40:23.941Z,102034.91
2019-05-12T23:42:53.994Z,102033.66
2019-05-12T23:45:38.412Z,102035.48
2019-05-12T23:48:08.830Z,102040.98
2019-05-12T23:50:39.573Z,102037.67
2019-05-12T23:53:08.971Z,102036.05
2019-05-12T23:55:43.651Z,102030.11
2019-05-12T23:58:14.579Z,102033.67
